createdAt,value
2022-11-25T00:00:00.331Z,1.00
2022-11-25T00:02:27.010Z,1.10
2022-11-25T00:04:53.407Z,0.80
2022-11-25T00:07:19.776Z,1.17
2022-11-25T00:09:46.232Z,0.82
2022-11-25T00:12:12.571Z,1.10
2022-11-25T00:14:39.080Z,0.98
2022-11-25T00:17:05.768Z,1.45
2022-11-25T00:19:32.255Z,1.17
2022-11-25T00:21:58.848Z,1.70
2022-11-25T00:24:25.493Z,1.67
2022-11-25T00:26:51.843Z,0.98
2022-11-25T00:29:18.318Z,1.85
2022-11-25T00:31:44.812Z,1.20
2022-11-25T00:34:13.334Z,1.10
2022-11-25T00:36:40.249Z,1.15
2022-11-25T00:39:15.410Z,1.10
2022-11-25T00:42:01.935Z,1.50
2022-11-25T00:44:40.196Z,1.20
2022-11-25T00:47:18.576Z,1.20
2022-11-25T00:49:47.441Z,1.30
2022-11-25T00:52:19.945Z,0.93
2022-11-25T00:54:47.728Z,1.80
2022-11-25T00:57:15.923Z,1.57
2022-11-25T00:59:42.397Z,1.10
2022-11-25T01:02:10.432Z,1.63
2022-11-25T01:04:37.729Z,1.25
2022-11-25T01:07:04.705Z,1.42
2022-11-25T01:09:31.780Z,1.47
2022-11-25T01:11:58.379Z,2.22
2022-11-25T01:14:25.365Z,1.27
2022-11-25T01:16:52.213Z,1.25
2022-11-25T01:19:20.149Z,1.45
2022-11-25T01:21:47.170Z,1.30
2022-11-25T01:24:15.570Z,1.35
2022-11-25T01:26:42.997Z,1.45
2022-11-25T01:29:18.273Z,1.38
2022-11-25T01:31:46.183Z,1.52
2022-11-25T01:34:17.064Z,1.80
2022-11-25T01:36:43.786Z,1.27
2022-11-25T01:39:18.144Z,1.73
2022-11-25T01:41:45.218Z,1.50
2022-11-25T01:44:21.400Z,1.30
2022-11-25T01:47:18.682Z,1.30
2022-11-25T01:50:02.612Z,1.48
2022-11-25T01:52:42.035Z,1.58
2022-11-25T01:55:20.297Z,1.60
2022-11-25T01:57:58.912Z,1.35
2022-11-25T02:00:25.773Z,1.53
2022-11-25T02:02:54.623Z,2.03
2022-11-25T02:05:32.396Z,1.52
2022-11-25T02:08:00.905Z,0.95
2022-11-25T02:10:30.773Z,2.03
2022-11-25T02:12:57.716Z,1.20
2022-11-25T02:15:24.399Z,1.52
2022-11-25T02:17:51.121Z,1.15
2022-11-25T02:20:22.793Z,2.08
2022-11-25T02:22:59.043Z,1.23
2022-11-25T02:25:28.936Z,1.63
2022-11-25T02:28:00.234Z,1.30
2022-11-25T02:30:26.775Z,1.05
2022-11-25T02:32:53.201Z,1.60
2022-11-25T02:35:36.359Z,1.30
2022-11-25T02:38:07.576Z,1.10
2022-11-25T02:40:49.011Z,1.48
2022-11-25T02:43:16.305Z,1.83
2022-11-25T02:45:51.867Z,1.40
2022-11-25T02:48:18.779Z,1.23
2022-11-25T02:50:45.572Z,0.90
2022-11-25T02:53:12.155Z,1.25
2022-11-25T02:55:38.584Z,1.27
2022-11-25T02:58:05.110Z,1.52
2022-11-25T03:00:31.607Z,1.13
2022-11-25T03:02:58.209Z,1.93
2022-11-25T03:05:25.202Z,1.30
2022-11-25T03:07:51.698Z,1.73
2022-11-25T03:10:18.601Z,1.50
2022-11-25T03:12:45.048Z,1.00
2022-11-25T03:15:12.193Z,1.97
2022-11-25T03:17:38.558Z,1.10
2022-11-25T03:20:07.312Z,1.10
2022-11-25T03:22:34.010Z,1.90
2022-11-25T03:25:00.356Z,0.90
2022-11-25T03:27:30.152Z,1.50
2022-11-25T03:29:56.819Z,0.90
2022-11-25T03:32:23.205Z,1.00
2022-11-25T03:34:49.595Z,1.00
2022-11-25T03:37:16.146Z,1.13
2022-11-25T03:39:42.598Z,1.10
2022-11-25T03:42:08.979Z,0.93
2022-11-25T03:44:35.500Z,0.88
2022-11-25T03:47:02.035Z,1.30
2022-11-25T03:49:28.509Z,1.23
2022-11-25T03:51:54.863Z,1.23
2022-11-25T03:54:21.230Z,1.20
2022-11-25T03:56:47.660Z,1.08
2022-11-25T03:59:14.064Z,1.00
2022-11-25T04:01:44.194Z,0.90
2022-11-25T04:04:10.950Z,1.50
2022-11-25T04:06:39.336Z,1.42
2022-11-25T04:09:07.087Z,1.42
2022-11-25T04:11:52.080Z,1.33
2022-11-25T04:14:18.790Z,1.17
2022-11-25T04:16:45.293Z,1.10
2022-11-25T04:19:11.674Z,1.20
2022-11-25T04:21:38.081Z,1.05
2022-11-25T04:24:04.720Z,1.00
2022-11-25T04:26:31.186Z,1.38
2022-11-25T04:28:57.595Z,0.93
2022-11-25T04:31:24.094Z,0.85
2022-11-25T04:33:52.684Z,1.10
2022-11-25T04:36:19.466Z,0.90
2022-11-25T04:38:45.903Z,1.25
2022-11-25T04:41:12.287Z,1.17
2022-11-25T04:43:38.710Z,0.82
2022-11-25T04:46:13.887Z,0.77
2022-11-25T04:48:40.864Z,0.82
2022-11-25T04:51:07.296Z,0.90
2022-11-25T04:53:33.619Z,0.80
2022-11-25T04:55:59.953Z,0.50
2022-11-25T04:58:44.847Z,0.50
2022-11-25T05:01:11.267Z,0.70
2022-11-25T05:03:37.644Z,0.55
2022-11-25T05:06:08.602Z,0.53
2022-11-25T05:08:35.816Z,0.30
2022-11-25T05:11:02.496Z,0.63
2022-11-25T05:13:28.829Z,0.70
2022-11-25T05:15:59.601Z,0.55
2022-11-25T05:18:26.044Z,0.70
2022-11-25T05:20:52.438Z,0.30
2022-11-25T05:23:18.798Z,0.70
2022-11-25T05:25:45.132Z,0.40
2022-11-25T05:28:11.536Z,1.08
2022-11-25T05:30:37.960Z,0.50
2022-11-25T05:33:04.404Z,0.30
2022-11-25T05:35:30.790Z,0.30
2022-11-25T05:37:57.227Z,0.50
2022-11-25T05:40:23.590Z,0.70
2022-11-25T05:42:50.574Z,0.40
2022-11-25T05:45:16.950Z,0.45
2022-11-25T05:47:43.346Z,0.30
2022-11-25T05:50:09.922Z,0.30
2022-11-25T05:52:36.260Z,0.38
2022-11-25T05:55:02.654Z,0.40
2022-11-25T05:57:29.189Z,0.25
2022-11-25T05:59:55.757Z,0.40
2022-11-25T06:02:22.173Z,0.20
2022-11-25T06:04:48.574Z,0.30
2022-11-25T06:07:15.449Z,0.30
2022-11-25T06:09:41.888Z,0.25
2022-11-25T06:12:08.277Z,0.30
2022-11-25T06:14:35.276Z,0.70
2022-11-25T06:17:01.968Z,0.30
2022-11-25T06:19:28.501Z,0.50
2022-11-25T06:21:54.986Z,0.30
2022-11-25T06:24:21.481Z,0.80
2022-11-25T06:26:47.994Z,0.43
2022-11-25T06:29:14.369Z,0.73
2022-11-25T06:31:40.860Z,0.97
2022-11-25T06:34:09.151Z,0.30
2022-11-25T06:36:35.568Z,0.65
2022-11-25T06:39:02.007Z,0.57
2022-11-25T06:41:28.550Z,0.57
2022-11-25T06:43:54.976Z,0.50
2022-11-25T06:46:25.234Z,0.52
2022-11-25T06:48:53.318Z,0.57
2022-11-25T06:51:20.017Z,0.47
2022-11-25T06:53:46.447Z,0.60
2022-11-25T06:56:24.630Z,0.50
2022-11-25T06:58:51.914Z,0.60
2022-11-25T07:01:28.989Z,0.80
2022-11-25T07:03:59.409Z,0.70
2022-11-25T07:06:25.933Z,0.80
2022-11-25T07:08:52.700Z,0.50
2022-11-25T07:11:22.197Z,0.80
2022-11-25T07:13:52.198Z,0.93
2022-11-25T07:16:18.626Z,0.90
2022-11-25T07:18:45.369Z,0.80
2022-11-25T07:21:18.051Z,0.70
2022-11-25T07:23:45.753Z,0.80
2022-11-25T07:26:15.847Z,0.80
2022-11-25T07:28:42.819Z,0.80
2022-11-25T07:31:27.188Z,1.23
2022-11-25T07:34:05.589Z,1.03
2022-11-25T07:36:33.840Z,1.15
2022-11-25T07:39:02.153Z,0.88
2022-11-25T07:41:29.360Z,1.00
2022-11-25T07:43:58.779Z,1.40
2022-11-25T07:46:27.711Z,0.93
2022-11-25T07:49:00.440Z,1.05
2022-11-25T07:51:35.425Z,1.45
2022-11-25T07:54:04.040Z,1.00
2022-11-25T07:56:31.480Z,1.10
2022-11-25T07:58:58.182Z,1.07
2022-11-25T08:01:24.875Z,1.02
2022-11-25T08:03:51.874Z,1.25
2022-11-25T08:06:21.802Z,1.30
2022-11-25T08:08:49.044Z,1.35
2022-11-25T08:11:18.776Z,1.10
2022-11-25T08:13:46.283Z,1.00
2022-11-25T08:16:14.193Z,1.17
2022-11-25T08:18:41.032Z,1.05
2022-11-25T08:21:12.609Z,1.40
2022-11-25T08:23:40.422Z,1.00
2022-11-25T08:26:12.896Z,1.60
2022-11-25T08:28:41.417Z,1.30
2022-11-25T08:31:16.559Z,1.40
2022-11-25T08:33:43.630Z,1.02
2022-11-25T08:36:11.038Z,1.00
2022-11-25T08:38:37.528Z,1.20
2022-11-25T08:41:08.473Z,1.20
2022-11-25T08:43:34.851Z,1.20
2022-11-25T08:46:01.486Z,1.30
2022-11-25T08:48:27.897Z,1.10
2022-11-25T08:50:55.084Z,1.50
2022-11-25T08:53:22.184Z,1.13
2022-11-25T08:55:49.412Z,1.50
2022-11-25T08:58:15.838Z,1.30
2022-11-25T09:00:44.477Z,1.17
2022-11-25T09:03:12.412Z,1.75
2022-11-25T09:05:41.610Z,1.25
2022-11-25T09:08:09.318Z,1.30
2022-11-25T09:10:37.029Z,1.55
2022-11-25T09:13:03.603Z,1.20
2022-11-25T09:15:31.665Z,1.23
2022-11-25T09:18:00.444Z,1.08
2022-11-25T09:20:27.879Z,1.30
2022-11-25T09:22:54.498Z,1.10
2022-11-25T09:25:22.092Z,1.20
2022-11-25T09:27:48.424Z,1.00
2022-11-25T09:30:15.943Z,1.55
2022-11-25T09:32:42.398Z,1.00
2022-11-25T09:35:09.028Z,1.05
2022-11-25T09:37:35.577Z,1.30
2022-11-25T09:40:01.963Z,1.13
2022-11-25T09:43:15.737Z,0.93
2022-11-25T09:46:17.107Z,1.13
2022-11-25T09:49:15.055Z,1.00
2022-11-25T09:51:58.814Z,0.80
2022-11-25T09:54:36.876Z,1.00
2022-11-25T09:57:28.842Z,1.17
2022-11-25T10:00:01.093Z,0.82
2022-11-25T10:02:36.580Z,1.08
2022-11-25T10:05:20.067Z,1.27
2022-11-25T10:07:51.475Z,1.02
2022-11-25T10:10:27.626Z,0.95
2022-11-25T10:12:56.713Z,1.08
2022-11-25T10:15:43.400Z,0.95
2022-11-25T10:18:25.029Z,1.13
2022-11-25T10:20:52.511Z,1.10
2022-11-25T10:23:27.988Z,1.30
2022-11-25T10:26:02.077Z,1.17
2022-11-25T10:28:33.374Z,0.82
2022-11-25T10:31:16.453Z,1.10
2022-11-25T10:33:45.448Z,0.68
2022-11-25T10:36:23.727Z,0.82
2022-11-25T10:39:02.774Z,0.73
2022-11-25T10:41:41.734Z,0.73
2022-11-25T10:44:19.721Z,0.70
2022-11-25T10:47:15.006Z,0.75
2022-11-25T10:50:05.907Z,0.70
2022-11-25T10:52:39.742Z,0.90
2022-11-25T10:55:21.851Z,1.38
2022-11-25T10:57:48.307Z,0.73
2022-11-25T11:00:33.470Z,1.05
2022-11-25T11:03:23.211Z,1.02
2022-11-25T11:05:52.350Z,1.27
2022-11-25T11:08:22.554Z,1.50
2022-11-25T11:11:19.253Z,1.20
2022-11-25T11:13:47.381Z,1.17
2022-11-25T11:16:37.361Z,1.15
2022-11-25T11:19:04.449Z,1.00
2022-11-25T11:21:37.356Z,1.30
2022-11-25T11:24:22.370Z,1.20
2022-11-25T11:27:12.292Z,1.45
2022-11-25T11:29:38.719Z,1.08
2022-11-25T11:32:07.602Z,1.30
2022-11-25T11:35:03.812Z,1.30
2022-11-25T11:37:44.244Z,1.20
2022-11-25T11:40:42.100Z,0.85
2022-11-25T11:43:29.860Z,2.05
2022-11-25T11:46:04.977Z,1.15
2022-11-25T11:48:39.592Z,1.17
2022-11-25T11:51:24.592Z,1.33
2022-11-25T11:54:15.788Z,1.50
2022-11-25T11:56:52.006Z,1.15
2022-11-25T11:59:49.147Z,1.10
2022-11-25T12:02:19.861Z,1.05
2022-11-25T12:05:12.651Z,1.03
2022-11-25T12:07:54.988Z,1.15
2022-11-25T12:10:38.001Z,1.17
2022-11-25T12:13:04.319Z,1.08
2022-11-25T12:15:44.639Z,1.10
2022-11-25T12:18:17.149Z,0.90
2022-11-25T12:21:02.116Z,0.82
2022-11-25T12:23:40.707Z,1.08
2022-11-25T12:26:14.769Z,0.88
2022-11-25T12:28:53.238Z,1.00
2022-11-25T12:31:27.580Z,1.00
2022-11-25T12:33:57.156Z,1.00
2022-11-25T12:36:37.320Z,0.90
2022-11-25T12:39:21.440Z,1.23
2022-11-25T12:41:55.739Z,1.00
2022-11-25T12:44:25.275Z,1.20
2022-11-25T12:46:56.517Z,1.17
2022-11-25T12:49:28.726Z,0.57
2022-11-25T12:52:07.265Z,1.20
2022-11-25T12:55:02.606Z,0.98
2022-11-25T12:58:02.886Z,1.23
2022-11-25T13:00:53.759Z,1.00
2022-11-25T13:03:38.907Z,0.97
2022-11-25T13:06:31.967Z,1.00
2022-11-25T13:09:08.984Z,0.93
2022-11-25T13:11:49.361Z,1.00
2022-11-25T13:14:28.950Z,1.13
2022-11-25T13:16:57.436Z,1.50
2022-11-25T13:19:24.384Z,1.10
2022-11-25T13:22:02.733Z,0.75
2022-11-25T13:24:38.151Z,0.95
2022-11-25T13:27:05.773Z,1.10
2022-11-25T13:29:32.242Z,0.63
2022-11-25T13:32:05.104Z,0.57
2022-11-25T13:34:36.292Z,1.13
2022-11-25T13:37:33.483Z,1.00
2022-11-25T13:40:29.376Z,1.00
2022-11-25T13:42:57.235Z,1.20
2022-11-25T13:45:32.028Z,0.75
2022-11-25T13:48:21.054Z,0.70
2022-11-25T13:51:10.739Z,1.15
2022-11-25T13:53:37.894Z,0.82
2022-11-25T13:56:23.332Z,0.77
2022-11-25T13:59:19.945Z,1.00
2022-11-25T14:01:46.637Z,1.02
2022-11-25T14:04:15.559Z,0.75
2022-11-25T14:06:54.958Z,0.98
2022-11-25T14:10:00.499Z,1.30
2022-11-25T14:12:30.765Z,0.85
2022-11-25T14:15:24.292Z,0.60
2022-11-25T14:19:12.077Z,1.10
2022-11-25T14:21:41.538Z,0.82
2022-11-25T14:24:24.568Z,0.87
2022-11-25T14:26:52.607Z,0.95
2022-11-25T14:29:28.958Z,1.17
2022-11-25T14:32:10.606Z,1.13
2022-11-25T14:34:45.163Z,0.88
2022-11-25T14:37:26.069Z,1.33
2022-11-25T14:40:00.398Z,0.88
2022-11-25T14:42:35.912Z,0.85
2022-11-25T14:45:03.373Z,0.93
2022-11-25T14:47:39.221Z,0.60
2022-11-25T14:53:00.557Z,0.98
2022-11-25T14:55:29.780Z,0.90
2022-11-25T14:57:56.478Z,0.90
2022-11-25T15:00:23.463Z,0.68
2022-11-25T15:02:59.656Z,0.60
2022-11-25T15:05:39.176Z,0.70
2022-11-25T15:08:22.077Z,0.80
2022-11-25T15:11:07.401Z,0.80
2022-11-25T15:13:39.690Z,1.58
2022-11-25T15:16:14.229Z,2.13
2022-11-25T15:18:50.613Z,2.10
2022-11-25T15:21:21.881Z,6.95
2022-11-25T15:23:48.952Z,3.70
2022-11-25T15:26:27.906Z,4.13
2022-11-25T15:29:00.130Z,4.53
2022-11-25T15:31:31.065Z,4.43
2022-11-25T15:34:02.262Z,5.03
2022-11-25T15:36:29.374Z,4.07
2022-11-25T15:39:12.589Z,4.43
2022-11-25T15:41:41.422Z,1.70
2022-11-25T15:44:21.883Z,1.95
2022-11-25T15:47:02.784Z,1.60
2022-11-25T15:49:30.093Z,1.92
2022-11-25T15:52:17.662Z,2.30
2022-11-25T15:54:50.589Z,1.60
2022-11-25T15:57:22.999Z,1.77
2022-11-25T15:59:55.371Z,1.50
2022-11-25T16:02:47.129Z,1.25
2022-11-25T16:05:16.503Z,1.25
2022-11-25T16:07:52.186Z,2.03
2022-11-25T16:10:19.790Z,1.80
2022-11-25T16:13:23.347Z,2.60
2022-11-25T16:15:52.343Z,2.75
2022-11-25T16:18:39.785Z,2.53
2022-11-25T16:21:45.809Z,2.53
2022-11-25T16:24:41.940Z,2.65
2022-11-25T16:27:17.442Z,2.53
2022-11-25T16:29:53.413Z,3.38
2022-11-25T16:32:22.329Z,3.55
2022-11-25T16:34:48.764Z,3.20
2022-11-25T16:37:15.261Z,4.25
2022-11-25T16:39:41.941Z,3.60
2022-11-25T16:42:17.203Z,3.90
2022-11-25T16:44:48.077Z,4.07
2022-11-25T16:47:14.611Z,4.43
2022-11-25T16:49:41.137Z,4.88
2022-11-25T16:52:07.584Z,4.82
2022-11-25T16:54:33.983Z,5.43
2022-11-25T16:57:00.565Z,6.15
2022-11-25T16:59:34.803Z,5.57
2022-11-25T17:02:02.439Z,4.70
2022-11-25T17:04:28.953Z,4.00
2022-11-25T17:07:30.987Z,2.92
2022-11-25T17:09:45.889Z,2.97
2022-11-25T17:12:22.469Z,2.93
2022-11-25T17:14:49.182Z,2.70
2022-11-25T17:17:25.133Z,2.60
2022-11-25T17:19:52.812Z,3.10
2022-11-25T17:22:25.077Z,2.92
2022-11-25T17:24:51.827Z,3.50
2022-11-25T17:27:30.842Z,2.83
2022-11-25T17:30:03.526Z,3.97
2022-11-25T17:32:30.816Z,3.22
2022-11-25T17:34:57.216Z,3.22
2022-11-25T17:37:24.977Z,3.40
2022-11-25T17:39:53.405Z,3.65
2022-11-25T17:42:26.849Z,4.25
2022-11-25T17:44:54.501Z,5.05
2022-11-25T17:47:21.213Z,5.03
2022-11-25T17:49:48.241Z,5.60
2022-11-25T17:55:23.032Z,8.98
2022-11-25T17:57:50.003Z,8.98
2022-11-25T18:00:22.284Z,7.55
2022-11-25T18:02:49.718Z,6.93
2022-11-25T18:05:20.273Z,5.03
2022-11-25T18:07:46.817Z,4.78
2022-11-25T18:10:16.185Z,3.88
2022-11-25T18:12:49.115Z,4.85
2022-11-25T18:15:22.519Z,3.70
2022-11-25T18:17:50.477Z,3.53
2022-11-25T18:20:23.951Z,6.30
2022-11-25T18:22:53.721Z,5.03
2022-11-25T18:25:24.897Z,5.18
2022-11-25T18:27:56.158Z,5.60
2022-11-25T18:30:28.545Z,6.40
2022-11-25T18:32:56.224Z,6.47
2022-11-25T18:35:28.753Z,7.13
2022-11-25T18:37:59.485Z,6.55
2022-11-25T18:40:27.879Z,5.40
2022-11-25T18:42:56.800Z,5.47
2022-11-25T18:45:26.843Z,7.18
2022-11-25T18:47:53.819Z,8.27
2022-11-25T18:50:22.797Z,8.23
2022-11-25T18:52:49.678Z,6.80
2022-11-25T18:55:17.934Z,6.07
2022-11-25T18:57:48.007Z,4.90
2022-11-25T19:00:34.281Z,5.05
2022-11-25T19:03:01.080Z,4.15
2022-11-25T19:05:32.994Z,3.90
2022-11-25T19:08:00.388Z,4.63
2022-11-25T19:10:35.226Z,4.07
2022-11-25T19:13:05.738Z,3.80
2022-11-25T19:15:33.107Z,4.28
2022-11-25T19:18:02.330Z,3.70
2022-11-25T19:20:30.187Z,4.40
2022-11-25T19:23:00.825Z,3.60
2022-11-25T19:25:28.350Z,3.63
2022-11-25T19:27:58.591Z,3.40
2022-11-25T19:30:27.873Z,3.70
2022-11-25T19:32:58.180Z,2.83
2022-11-25T19:35:29.797Z,3.15
2022-11-25T19:37:56.229Z,4.47
2022-11-25T19:40:22.663Z,4.40
2022-11-25T19:42:49.143Z,4.63
2022-11-25T19:45:17.468Z,4.15
2022-11-25T19:47:45.390Z,4.03
2022-11-25T19:50:23.650Z,4.10
2022-11-25T19:52:51.034Z,4.18
2022-11-25T19:55:23.355Z,4.90
2022-11-25T19:57:51.136Z,5.63
2022-11-25T20:00:19.705Z,7.43
2022-11-25T20:02:48.282Z,6.72
2022-11-25T20:05:22.093Z,6.22
2022-11-25T20:07:48.642Z,4.97
2022-11-25T20:10:24.106Z,4.05
2022-11-25T20:12:51.063Z,3.30
2022-11-25T20:15:21.137Z,4.13
2022-11-25T20:17:50.339Z,4.63
2022-11-25T20:20:31.791Z,3.53
2022-11-25T20:23:06.762Z,3.47
2022-11-25T20:25:41.662Z,3.35
2022-11-25T20:28:37.516Z,3.03
2022-11-25T20:31:03.985Z,3.40
2022-11-25T20:33:30.395Z,3.43
2022-11-25T20:36:06.423Z,3.42
2022-11-25T20:38:35.673Z,3.20
2022-11-25T20:41:04.214Z,3.28
2022-11-25T20:43:41.362Z,3.50
2022-11-25T20:46:17.336Z,3.20
2022-11-25T20:48:45.346Z,3.40
2022-11-25T20:51:18.432Z,3.47
2022-11-25T20:53:47.781Z,3.28
2022-11-25T20:56:18.512Z,3.28
2022-11-25T20:58:46.432Z,2.80
2022-11-25T21:01:18.892Z,3.53
2022-11-25T21:03:46.607Z,3.88
2022-11-25T21:06:23.226Z,3.25
2022-11-25T21:08:52.723Z,3.65
2022-11-25T21:11:20.242Z,3.60
2022-11-25T21:13:47.315Z,3.10
2022-11-25T21:16:14.113Z,3.40
2022-11-25T21:18:44.050Z,2.70
2022-11-25T21:21:16.914Z,2.95
2022-11-25T21:23:44.748Z,3.53
2022-11-25T21:26:19.679Z,3.53
2022-11-25T21:28:48.880Z,3.05
2022-11-25T21:31:24.660Z,2.65
2022-11-25T21:33:53.242Z,2.92
2022-11-25T21:36:21.392Z,3.60
2022-11-25T21:38:50.719Z,4.25
2022-11-25T21:41:18.772Z,3.65
2022-11-25T21:43:48.084Z,3.42
2022-11-25T21:46:19.037Z,3.90
2022-11-25T21:48:45.907Z,3.90
2022-11-25T21:51:14.033Z,3.72
2022-11-25T21:53:40.744Z,3.60
2022-11-25T21:56:17.879Z,3.90
2022-11-25T21:58:44.431Z,3.55
2022-11-25T22:01:12.517Z,3.70
2022-11-25T22:03:39.231Z,3.10
2022-11-25T22:06:17.902Z,3.35
2022-11-25T22:08:44.415Z,3.53
2022-11-25T22:11:14.940Z,2.42
2022-11-25T22:13:43.466Z,2.97
2022-11-25T22:16:16.287Z,3.45
2022-11-25T22:18:43.795Z,3.13
2022-11-25T22:21:14.424Z,3.30
2022-11-25T22:23:42.106Z,3.15
2022-11-25T22:26:17.792Z,4.30
2022-11-25T22:28:49.960Z,3.53
2022-11-25T22:31:19.071Z,2.80
2022-11-25T22:33:46.491Z,3.22
2022-11-25T22:36:31.654Z,2.53
2022-11-25T22:39:10.943Z,3.10
2022-11-25T22:41:37.335Z,2.80
2022-11-25T22:44:04.265Z,2.60
2022-11-25T22:46:34.669Z,2.90
2022-11-25T22:49:01.225Z,2.45
2022-11-25T22:51:27.954Z,2.50
2022-11-25T22:53:54.396Z,2.53
2022-11-25T22:56:20.911Z,3.45
2022-11-25T22:58:47.306Z,2.78
2022-11-25T23:01:16.211Z,2.70
2022-11-25T23:03:44.098Z,2.57
2022-11-25T23:06:12.458Z,2.03
2022-11-25T23:08:39.430Z,3.15
2022-11-25T23:11:06.235Z,3.28
2022-11-25T23:13:32.633Z,2.80
2022-11-25T23:16:01.570Z,3.30
2022-11-25T23:18:37.938Z,2.42
2022-11-25T23:21:19.360Z,3.08
2022-11-25T23:23:45.859Z,2.90
2022-11-25T23:26:13.585Z,2.90
2022-11-25T23:28:40.035Z,2.77
2022-11-25T23:31:07.118Z,2.67
2022-11-25T23:33:39.715Z,3.17
2022-11-25T23:36:12.029Z,2.53
2022-11-25T23:38:43.800Z,2.35
2022-11-25T23:41:15.244Z,2.43
2022-11-25T23:43:41.610Z,2.15
2022-11-25T23:46:12.627Z,2.55
2022-11-25T23:48:39.850Z,2.30
2022-11-25T23:51:08.673Z,2.55
2022-11-25T23:53:39.186Z,2.80
2022-11-25T23:56:05.900Z,2.17
2022-11-25T23:58:32.528Z,2.45
